BWI weather

Baltimore/Washington International Thurgood Marshall Airport
Baltimore, Maryland, United States

Public forecast

Using degrees Fahrenheit for public forecast. Weather courtesy of forecast.io.

METAR (pilot weather report)

Retrieved 2017/05/28 22:54 UTC (1 hour ago):

KBWI 282254Z 08010KT 8SM -RA SCT010 OVC034 19/18 A2984 RMK AO2 RAB31 SLP104 P0000 T01890183

TAF (pilot weather forecast)

Forecast is more than 12 hours old.

Retrieved 2017/05/28 06:33 UTC (17 hours ago):

TAF KBWI 280531Z 2806/2912 VRB03KT P6SM SCT090 FM280800 VRB03KT P6SM BKN020 FM281100 07004KT 5SM BR BKN025 FM281400 10005KT P6SM BKN025 FM290000 12008KT P6SM -SHRA OVC025 FM290200 12009KT P6SM -SHRA OVC008 FM290600 13006KT P6SM OVC010 FM290900 13005KT P6SM OVC003